Time;durP1;ratioP1;P1;durP2;ratioP2;P2;SDS_P1;SDS_P2;PMS_P1;PMS_P2;Temp;Humidity;BMP_temperature;BMP_pressure;BME280_temperature;BME280_humidity;BME280_pressure;Samples;Min_cycle;Max_cycle;Signal;HPM_P1;HPM_P2
2022/06/16 00:01:55;;;;;;;;;13.67;13.67;;;;;;;;6490812;39;8885;-63
2022/06/16 00:07:58;;;;;;;;;18.00;16.33;;;;;;;;6491129;36;8892;-62
2022/06/16 00:14:01;;;;;;;;;17.33;15.33;;;;;;;;6492105;31;9016;-63
2022/06/16 00:20:07;;;;;;;;;19.00;14.67;;;;;;;;6491406;39;8863;-63
2022/06/16 00:26:12;;;;;;;;;17.67;15.33;;;;;;;;6492115;39;8911;-62
2022/06/16 00:32:15;;;;;;;;;15.33;15.33;;;;;;;;6510074;36;8969;-62
2022/06/16 00:38:24;;;;;;;;;17.33;16.33;;;;;;;;6494143;39;8887;-62
2022/06/16 00:44:28;;;;;;;;;14.33;14.33;;;;;;;;6493129;39;8846;-62
2022/06/16 00:50:32;;;;;;;;;16.00;14.00;;;;;;;;6493115;46;8922;-63
2022/06/16 00:56:36;;;;;;;;;16.67;16.67;;;;;;;;6493744;39;8947;-61
2022/06/16 01:02:38;;;;;;;;;15.33;14.33;;;;;;;;6493059;39;8902;-62
2022/06/16 01:08:41;;;;;;;;;14.67;14.67;;;;;;;;6492689;39;8831;-62
2022/06/16 01:15:04;;;;;;;;;16.67;16.67;;;;;;;;6492595;39;8903;-62
2022/06/16 01:21:33;;;;;;;;;20.33;20.00;;;;;;;;6493380;31;8819;-62
2022/06/16 01:27:44;;;;;;;;;17.67;17.67;;;;;;;;6492196;39;8871;-62
2022/06/16 01:34:06;;;;;;;;;21.00;21.00;;;;;;;;6492126;39;8874;-63
2022/06/16 01:40:30;;;;;;;;;18.33;18.33;;;;;;;;6492710;39;8881;-61
2022/06/16 01:46:39;;;;;;;;;21.00;20.00;;;;;;;;6492290;31;8891;-62
2022/06/16 01:52:52;;;;;;;;;22.67;22.33;;;;;;;;6492083;39;9547;-62
2022/06/16 01:59:08;;;;;;;;;25.00;25.00;;;;;;;;6492351;39;8958;-63
2022/06/16 02:05:22;;;;;;;;;27.00;24.67;;;;;;;;6492705;39;9561;-62
2022/06/16 02:11:34;;;;;;;;;25.33;23.00;;;;;;;;6492393;31;8949;-62
2022/06/16 02:17:47;;;;;;;;;21.33;21.33;;;;;;;;6492113;31;8883;-63
2022/06/16 02:23:51;;;;;;;;;25.33;24.67;;;;;;;;6491355;39;8923;-62
2022/06/16 02:29:54;;;;;;;;;26.67;25.00;;;;;;;;6492113;46;8902;-63
2022/06/16 02:36:20;;;;;;;;;27.33;26.67;;;;;;;;6492542;46;8964;-63
2022/06/16 02:42:46;;;;;;;;;25.67;25.00;;;;;;;;6492440;39;9576;-62
2022/06/16 02:49:11;;;;;;;;;29.67;27.33;;;;;;;;6492806;31;8953;-63
2022/06/16 02:55:23;;;;;;;;;27.67;24.33;;;;;;;;6491055;31;8933;-63
2022/06/16 03:01:31;;;;;;;;;28.67;24.67;;;;;;;;6491827;46;8863;-62
2022/06/16 03:07:35;;;;;;;;;27.33;26.00;;;;;;;;6492031;39;8932;-62
2022/06/16 03:14:06;;;;;;;;;29.33;25.33;;;;;;;;6493153;31;9765;-62
2022/06/16 03:20:12;;;;;;;;;30.00;28.00;;;;;;;;6490624;46;8924;-62
2022/06/16 03:26:16;;;;;;;;;31.00;29.00;;;;;;;;6492522;39;8811;-62
2022/06/16 03:32:20;;;;;;;;;31.00;31.00;;;;;;;;6492102;39;8847;-62
2022/06/16 03:44:27;;;;;;;;;35.00;31.67;;;;;;;;6491750;31;8893;-61
2022/06/16 03:50:34;;;;;;;;;34.33;32.33;;;;;;;;6490943;39;8905;-62
2022/06/16 03:56:40;;;;;;;;;29.33;27.33;;;;;;;;6491179;39;8949;-62
2022/06/16 04:09:20;;;;;;;;;23.67;23.67;;;;;;;;6492034;39;8885;-64
2022/06/16 04:15:25;;;;;;;;;32.33;28.67;;;;;;;;6493526;46;8964;-65
2022/06/16 04:21:31;;;;;;;;;36.33;34.67;;;;;;;;6492743;46;8809;-65
2022/06/16 04:28:06;;;;;;;;;34.67;30.33;;;;;;;;6493788;31;8862;-65
2022/06/16 04:34:13;;;;;;;;;32.00;29.00;;;;;;;;6490831;31;8893;-66
2022/06/16 04:40:15;;;;;;;;;32.67;29.67;;;;;;;;6493017;39;8964;-65
2022/06/16 04:46:20;;;;;;;;;34.00;28.67;;;;;;;;6493202;39;8833;-66
2022/06/16 04:52:25;;;;;;;;;35.33;34.33;;;;;;;;6492834;39;8960;-66
2022/06/16 04:58:29;;;;;;;;;32.33;31.67;;;;;;;;6493118;36;8813;-66
2022/06/16 05:04:53;;;;;;;;;31.33;30.33;;;;;;;;6492156;39;9067;-65
2022/06/16 05:11:14;;;;;;;;;29.00;26.67;;;;;;;;6493080;46;8885;-65
2022/06/16 05:17:29;;;;;;;;;28.67;27.67;;;;;;;;6492140;39;8897;-65
2022/06/16 05:23:58;;;;;;;;;29.00;28.00;;;;;;;;6492618;39;8908;-65
2022/06/16 05:30:30;;;;;;;;;20.67;18.67;;;;;;;;6491911;46;8878;-65
2022/06/16 05:37:03;;;;;;;;;25.67;21.67;;;;;;;;6492057;31;9170;-65
2022/06/16 05:43:29;;;;;;;;;25.33;24.67;;;;;;;;6492974;39;8907;-65
2022/06/16 05:49:42;;;;;;;;;27.33;25.00;;;;;;;;6491968;39;9010;-64
2022/06/16 05:55:44;;;;;;;;;25.00;24.00;;;;;;;;6492174;46;8913;-63
2022/06/16 06:01:49;;;;;;;;;21.67;20.00;;;;;;;;6490762;46;8956;-64
2022/06/16 06:20:40;;;;;;;;;23.00;21.75;;;;;;;;6491685;39;9572;-66
2022/06/16 06:26:42;;;;;;;;;22.75;19.50;;;;;;;;6490951;39;9524;-65
2022/06/16 06:32:46;;;;;;;;;22.25;22.00;;;;;;;;6491165;39;8924;-64
2022/06/16 06:38:49;;;;;;;;;15.00;15.00;;;;;;;;6491281;39;8936;-64
2022/06/16 06:44:51;;;;;;;;;21.75;21.50;;;;;;;;6491306;39;8913;-64
2022/06/16 06:50:53;;;;;;;;;20.00;20.00;;;;;;;;6491800;39;9509;-64
2022/06/16 06:56:57;;;;;;;;;17.75;16.50;;;;;;;;6490422;39;9804;-63
2022/06/16 07:02:59;;;;;;;;;22.75;22.50;;;;;;;;6490874;39;9014;-64
2022/06/16 07:09:04;;;;;;;;;16.50;15.75;;;;;;;;6489334;39;8912;-63
2022/06/16 07:15:07;;;;;;;;;15.50;14.75;;;;;;;;6491256;46;8941;-64
2022/06/16 07:21:10;;;;;;;;;11.25;11.00;;;;;;;;6490084;39;9599;-64
2022/06/16 07:27:12;;;;;;;;;14.50;14.00;;;;;;;;6491491;39;8915;-64
2022/06/16 07:33:14;;;;;;;;;14.75;14.75;;;;;;;;6485861;39;8932;-65
2022/06/16 07:39:17;;;;;;;;;12.25;10.75;;;;;;;;6489512;31;9789;-64
2022/06/16 07:45:20;;;;;;;;;12.00;10.75;;;;;;;;6488970;39;8904;-64
2022/06/16 07:51:28;;;;;;;;;20.25;19.25;;;;;;;;6489814;31;8963;-64
2022/06/16 07:57:34;;;;;;;;;11.50;10.50;;;;;;;;6490460;39;8950;-64
2022/06/16 08:03:36;;;;;;;;;12.00;12.00;;;;;;;;6490622;31;9357;-65
2022/06/16 08:09:40;;;;;;;;;12.00;11.00;;;;;;;;6490677;47;8996;-64
2022/06/16 08:15:45;;;;;;;;;11.25;11.25;;;;;;;;6490926;39;9004;-64
2022/06/16 08:21:49;;;;;;;;;11.50;11.50;;;;;;;;6490352;47;8922;-62
2022/06/16 08:27:55;;;;;;;;;14.75;14.75;;;;;;;;6490092;39;8930;-66
2022/06/16 08:33:59;;;;;;;;;19.75;17.25;;;;;;;;6490162;39;8928;-64
2022/06/16 08:40:05;;;;;;;;;13.00;11.75;;;;;;;;6490961;31;9030;-64
2022/06/16 08:46:08;;;;;;;;;17.25;15.75;;;;;;;;6490767;39;8967;-65
2022/06/16 08:52:28;;;;;;;;;17.25;16.00;;;;;;;;6490543;39;9037;-63
2022/06/16 08:58:41;;;;;;;;;27.75;25.50;;;;;;;;6493243;39;8960;-64
2022/06/16 09:05:01;;;;;;;;;32.75;29.25;;;;;;;;6491326;31;9219;-63
2022/06/16 09:11:32;;;;;;;;;13.50;11.75;;;;;;;;6490971;39;8952;-64
2022/06/16 09:18:01;;;;;;;;;17.50;17.50;;;;;;;;6489559;39;9551;-64
2022/06/16 09:24:41;;;;;;;;;19.25;17.75;;;;;;;;6492238;46;8924;-62
2022/06/16 09:30:48;;;;;;;;;16.00;16.00;;;;;;;;6491772;31;8918;-63
2022/06/16 09:36:57;;;;;;;;;15.00;14.00;;;;;;;;6492288;39;8918;-61
2022/06/16 09:43:10;;;;;;;;;13.75;13.50;;;;;;;;6491760;39;8921;-63
2022/06/16 09:49:33;;;;;;;;;46.75;39.50;;;;;;;;6492099;39;9535;-63
2022/06/16 09:56:10;;;;;;;;;16.25;15.50;;;;;;;;6490913;39;9004;-63
2022/06/16 10:02:26;;;;;;;;;17.25;17.25;;;;;;;;6490766;39;8892;-64
2022/06/16 10:08:43;;;;;;;;;41.25;37.00;;;;;;;;6491209;31;8903;-64
2022/06/16 10:15:04;;;;;;;;;17.50;16.50;;;;;;;;6492064;31;8966;-64
2022/06/16 10:21:10;;;;;;;;;13.75;13.75;;;;;;;;6489288;46;8945;-65
2022/06/16 10:27:15;;;;;;;;;18.25;15.50;;;;;;;;6490133;31;8996;-63
2022/06/16 10:33:39;;;;;;;;;15.75;14.75;;;;;;;;6492049;39;8919;-64
2022/06/16 10:39:49;;;;;;;;;21.75;20.00;;;;;;;;6491204;46;9144;-64
2022/06/16 10:46:02;;;;;;;;;18.75;18.50;;;;;;;;6492041;31;8929;-65
2022/06/16 10:52:11;;;;;;;;;17.75;17.50;;;;;;;;6489471;39;8996;-64
2022/06/16 10:58:24;;;;;;;;;15.50;15.50;;;;;;;;6491605;31;8919;-64
2022/06/16 11:04:35;;;;;;;;;19.75;18.00;;;;;;;;6489500;39;8953;-65
2022/06/16 11:10:40;;;;;;;;;13.50;12.50;;;;;;;;6489131;39;8929;-64
2022/06/16 11:16:53;;;;;;;;;14.75;14.75;;;;;;;;6491218;31;8900;-63
2022/06/16 11:22:56;;;;;;;;;14.75;14.75;;;;;;;;6490380;39;8984;-63
2022/06/16 11:29:24;;;;;;;;;15.50;15.50;;;;;;;;6491342;31;9461;-63
2022/06/16 11:35:46;;;;;;;;;22.25;22.25;;;;;;;;6490300;39;9645;-63
2022/06/16 11:41:54;;;;;;;;;21.50;19.75;;;;;;;;6489922;39;8919;-64
2022/06/16 11:48:26;;;;;;;;;15.75;15.75;;;;;;;;6486327;31;8901;-64
2022/06/16 11:55:07;;;;;;;;;11.00;11.00;;;;;;;;6488124;39;8968;-64
